Cadillac — WAL7932 — position and weather

sailwx.info

Track history (hours):
 
Tides and Currents Weather Stations Pressure Air Temp Water Temp Dewpoint Dewpoint Depression Visibility Wind Speed Wind Dir Waves Ship Positions

Cadillac

Owner: MACKINAW LAKESHORE DEVELOPMENT, MACKINAW CITY, MI. More information available from US FCC via Universal Licensing System and Coast Guard Vessel Documentation Center.

Last reported at 2017-Sep-19 15:42 UTC. Time now 2017-Sep-19 20:28 UTC.
Position N 45°46' W 084°43'.

Length 19 m.

Type: Passenger vessel. MMSI: 367031580.

Date/timePositionNaut miles runAvg speedWind from/ knotsBaromVisibWave heightAir tempDewpointWater temp
2017-Sep-19 15:42N 45°46' W 084°43'0 0.0
2017-Sep-19 15:27N 45°46' W 084°43'0 0.3
2017-Sep-19 15:00N 45°46' W 084°43'611.5
2017-Sep-19 14:27N 45°51' W 084°37'6 0.3
2017-Sep-18 17:59N 45°46' W 084°43'611.2
2017-Sep-18 17:24N 45°51' W 084°37'615.1
2017-Sep-18 16:59N 45°46' W 084°43'0 0.0
2017-Sep-17 16:38N 45°46' W 084°43'420.3
2017-Sep-17 16:27N 45°49' W 084°39'2 4.9
2017-Sep-17 16:00N 45°50' W 084°37'611.8
2017-Sep-17 15:30N 45°46' W 084°43'612.6
2017-Sep-17 15:00N 45°51' W 084°37'611.3
2017-Sep-17 14:26N 45°46' W 084°43'613.6
2017-Sep-17 13:58N 45°51' W 084°37'613.8
2017-Sep-17 13:30N 45°46' W 084°43'0 0.0
2017-Sep-17 12:45N 45°46' W 084°43'0 0.0
2017-Sep-17 12:27N 45°46' W 084°43'0 0.0
2017-Sep-17 11:57N 45°46' W 084°43'0 0.0
2017-Sep-17 11:24N 45°46' W 084°43'0 0.0
2017-Sep-17 10:57N 45°46' W 084°43'0 0.0
2017-Sep-17 10:24N 45°46' W 084°43'0 0.0
2017-Sep-17 09:48N 45°46' W 084°43'0 0.0
2017-Sep-17 09:30N 45°46' W 084°43'0 0.0
2017-Sep-17 08:57N 45°46' W 084°43'0 0.0
2017-Sep-17 08:30N 45°46' W 084°43'0 0.0
2017-Sep-17 07:18N 45°46' W 084°43'0 0.0
2017-Sep-17 07:00N 45°46' W 084°43'0 0.0
2017-Sep-17 06:21N 45°46' W 084°43'0 0.0
2017-Sep-17 06:00N 45°46' W 084°43'0 0.0
2017-Sep-17 05:27N 45°46' W 084°43'0 0.0
2017-Sep-17 04:48N 45°46' W 084°43'0 0.0
2017-Sep-17 04:21N 45°46' W 084°43'0 0.0
2017-Sep-17 04:00N 45°46' W 084°43'0 0.0
2017-Sep-17 03:18N 45°46' W 084°43'0 0.0
2017-Sep-17 02:51N 45°46' W 084°43'0 0.0
2017-Sep-17 02:06N 45°46' W 084°43'0 0.0
2017-Sep-17 01:57N 45°46' W 084°43'0 0.0
2017-Sep-17 01:27N 45°46' W 084°43'0 0.0
2017-Sep-17 00:42N 45°46' W 084°43'0 0.0
2017-Sep-17 00:30N 45°46' W 084°43'0 0.0
2017-Sep-16 23:57N 45°46' W 084°43'0 0.0
2017-Sep-16 23:21N 45°46' W 084°43'1 2.7
2017-Sep-16 22:59N 45°47' W 084°43'6 9.9
2017-Sep-16 22:24N 45°51' W 084°37'616.1
2017-Sep-16 22:00N 45°46' W 084°43'611.4
2017-Sep-16 21:26N 45°51' W 084°37'614.0
2017-Sep-16 20:59N 45°46' W 084°43'612.3
2017-Sep-16 20:27N 45°51' W 084°37'6 2.8
2017-Sep-16 18:10N 45°46' W 084°43'1 3.3
2017-Sep-16 17:55N 45°47' W 084°42'612.4
2017-Sep-16 17:28N 45°51' W 084°37'612.6
2017-Sep-16 16:58N 45°46' W 084°43'611.7
2017-Sep-16 16:25N 45°51' W 084°37'1 1.3
2017-Sep-16 15:59N 45°50' W 084°37'611.6
2017-Sep-16 15:30N 45°47' W 084°43'611.8
2017-Sep-16 15:00N 45°51' W 084°37'613.3
2017-Sep-16 14:31N 45°46' W 084°43'612.2
2017-Sep-16 13:59N 45°51' W 084°37'612.6
2017-Sep-16 13:28N 45°46' W 084°43'0 0.0
2017-Sep-16 12:56N 45°46' W 084°43'0 0.0
2017-Sep-16 12:28N 45°46' W 084°43'612.1
2017-Sep-16 11:59N 45°52' W 084°43'0 0.0
2017-Sep-15 18:16N 45°52' W 084°44'0 0.0
2017-Sep-14 22:51N 45°52' W 084°44'511.6
2017-Sep-14 22:26N 45°51' W 084°37'511.6
2017-Sep-14 22:00N 45°52' W 084°44'5 9.7
2017-Sep-14 21:30N 45°51' W 084°37'5 9.4
2017-Sep-14 20:59N 45°52' W 084°44'5 7.6
2017-Sep-14 20:20N 45°51' W 084°37'514.7
2017-Sep-14 20:00N 45°52' W 084°44'5 9.5
2017-Sep-14 19:29N 45°51' W 084°37'5 9.2
2017-Sep-14 18:57N 45°52' W 084°44'5 8.4
2017-Sep-14 18:22N 45°51' W 084°37'5 2.4
2017-Sep-14 16:20N 45°52' W 084°44'411.9
2017-Sep-14 15:59N 45°49' W 084°42'2 4.3
2017-Sep-14 15:25N 45°46' W 084°43'0 0.9
2017-Sep-14 15:00N 45°46' W 084°43'612.0
2017-Sep-14 14:30N 45°51' W 084°37'612.0
2017-Sep-14 13:58N 45°46' W 084°43'610.4
2017-Sep-14 13:24N 45°51' W 084°38'4 0.3
2017-Sep-13 22:26N 45°52' W 084°44'612.7
2017-Sep-13 21:58N 45°46' W 084°43'611.1
2017-Sep-13 21:23N 45°51' W 084°37'511.6
2017-Sep-13 20:58N 45°52' W 084°44'5 7.5
2017-Sep-13 20:20N 45°51' W 084°37'5 1.8
2017-Sep-13 17:35N 45°52' W 084°44'1 8.8
2017-Sep-13 17:30N 45°52' W 084°43'510.1
2017-Sep-13 17:00N 45°47' W 084°42'510.6
2017-Sep-13 16:29N 45°51' W 084°37'612.6
2017-Sep-13 15:58N 45°46' W 084°43'0 0.0
2017-Sep-13 15:25N 45°46' W 084°43'0 0.0
2017-Sep-13 14:58N 45°46' W 084°43'613.7
2017-Sep-13 14:30N 45°51' W 084°37'611.0
2017-Sep-13 13:55N 45°46' W 084°43'614.5
2017-Sep-13 13:29N 45°51' W 084°37'5 6.1
2017-Sep-13 12:40N 45°52' W 084°44'0 0.0
2017-Sep-13 12:17N 45°52' W 084°44'0 0.0
2017-Sep-13 11:49N 45°52' W 084°44'0 0.0
2017-Sep-13 11:25N 45°52' W 084°44'0 0.0
2017-Sep-12 22:23N 45°52' W 084°44'0 0.4
2017-Sep-12 21:57N 45°52' W 084°44'5 7.3
2017-Sep-12 21:18N 45°51' W 084°37'412.7
2017-Sep-12 21:00N 45°52' W 084°42'4 6.1
2017-Sep-12 20:24N 45°51' W 084°37'0 0.0
2017-Sep-12 18:20N 45°51' W 084°37'510.5
2017-Sep-12 17:52N 45°52' W 084°44'512.3
2017-Sep-12 17:28N 45°51' W 084°37'4 7.5
2017-Sep-12 16:56N 45°52' W 084°42'3 7.5
2017-Sep-12 16:30N 45°50' W 084°39'4 7.9
2017-Sep-12 15:58N 45°52' W 084°44'510.0
2017-Sep-12 15:28N 45°51' W 084°37'3 5.8
2017-Sep-12 14:59N 45°52' W 084°41'2 4.4
2017-Sep-12 14:30N 45°50' W 084°40'4 6.1
2017-Sep-12 13:54N 45°52' W 084°44'510.0
2017-Sep-12 13:25N 45°51' W 084°37'512.0
2017-Sep-12 13:00N 45°52' W 084°44'0 0.0
2017-Sep-12 12:30N 45°52' W 084°44'  
Track history (hours):
 
Tides and Currents Weather Stations Pressure Air Temp Water Temp Dewpoint Dewpoint Depression Visibility Wind Speed Wind Dir Waves Ship Positions

Cadillac

Owner: MACKINAW LAKESHORE DEVELOPMENT, MACKINAW CITY, MI. More information available from US FCC via Universal Licensing System and Coast Guard Vessel Documentation Center.

Last reported at 2017-Sep-19 15:42 UTC. Time now 2017-Sep-19 20:28 UTC.
Position N 45°46' W 084°43'.

Length 19 m.

Type: Passenger vessel. MMSI: 367031580.

Date/timePositionNaut miles runAvg speedWind from/ knotsBaromVisibWave heightAir tempDewpointWater temp
2017-Sep-19 15:42N 45°46' W 084°43'0 0.0
2017-Sep-19 15:27N 45°46' W 084°43'0 0.3
2017-Sep-19 15:00N 45°46' W 084°43'611.5
2017-Sep-19 14:27N 45°51' W 084°37'6 0.3
2017-Sep-18 17:59N 45°46' W 084°43'611.2
2017-Sep-18 17:24N 45°51' W 084°37'615.1
2017-Sep-18 16:59N 45°46' W 084°43'0 0.0
2017-Sep-17 16:38N 45°46' W 084°43'420.3
2017-Sep-17 16:27N 45°49' W 084°39'2 4.9
2017-Sep-17 16:00N 45°50' W 084°37'611.8
2017-Sep-17 15:30N 45°46' W 084°43'612.6
2017-Sep-17 15:00N 45°51' W 084°37'611.3
2017-Sep-17 14:26N 45°46' W 084°43'613.6
2017-Sep-17 13:58N 45°51' W 084°37'613.8
2017-Sep-17 13:30N 45°46' W 084°43'0 0.0
2017-Sep-17 12:45N 45°46' W 084°43'0 0.0
2017-Sep-17 12:27N 45°46' W 084°43'0 0.0
2017-Sep-17 11:57N 45°46' W 084°43'0 0.0
2017-Sep-17 11:24N 45°46' W 084°43'0 0.0
2017-Sep-17 10:57N 45°46' W 084°43'0 0.0
2017-Sep-17 10:24N 45°46' W 084°43'0 0.0
2017-Sep-17 09:48N 45°46' W 084°43'0 0.0
2017-Sep-17 09:30N 45°46' W 084°43'0 0.0
2017-Sep-17 08:57N 45°46' W 084°43'0 0.0
2017-Sep-17 08:30N 45°46' W 084°43'0 0.0
2017-Sep-17 07:18N 45°46' W 084°43'0 0.0
2017-Sep-17 07:00N 45°46' W 084°43'0 0.0
2017-Sep-17 06:21N 45°46' W 084°43'0 0.0
2017-Sep-17 06:00N 45°46' W 084°43'0 0.0
2017-Sep-17 05:27N 45°46' W 084°43'0 0.0
2017-Sep-17 04:48N 45°46' W 084°43'0 0.0
2017-Sep-17 04:21N 45°46' W 084°43'0 0.0
2017-Sep-17 04:00N 45°46' W 084°43'0 0.0
2017-Sep-17 03:18N 45°46' W 084°43'0 0.0
2017-Sep-17 02:51N 45°46' W 084°43'0 0.0
2017-Sep-17 02:06N 45°46' W 084°43'0 0.0
2017-Sep-17 01:57N 45°46' W 084°43'0 0.0
2017-Sep-17 01:27N 45°46' W 084°43'0 0.0
2017-Sep-17 00:42N 45°46' W 084°43'0 0.0
2017-Sep-17 00:30N 45°46' W 084°43'0 0.0
2017-Sep-16 23:57N 45°46' W 084°43'0 0.0
2017-Sep-16 23:21N 45°46' W 084°43'1 2.7
2017-Sep-16 22:59N 45°47' W 084°43'6 9.9
2017-Sep-16 22:24N 45°51' W 084°37'616.1
2017-Sep-16 22:00N 45°46' W 084°43'611.4
2017-Sep-16 21:26N 45°51' W 084°37'614.0
2017-Sep-16 20:59N 45°46' W 084°43'612.3
2017-Sep-16 20:27N 45°51' W 084°37'6 2.8
2017-Sep-16 18:10N 45°46' W 084°43'1 3.3
2017-Sep-16 17:55N 45°47' W 084°42'612.4
2017-Sep-16 17:28N 45°51' W 084°37'612.6
2017-Sep-16 16:58N 45°46' W 084°43'611.7
2017-Sep-16 16:25N 45°51' W 084°37'1 1.3
2017-Sep-16 15:59N 45°50' W 084°37'611.6
2017-Sep-16 15:30N 45°47' W 084°43'611.8
2017-Sep-16 15:00N 45°51' W 084°37'613.3
2017-Sep-16 14:31N 45°46' W 084°43'612.2
2017-Sep-16 13:59N 45°51' W 084°37'612.6
2017-Sep-16 13:28N 45°46' W 084°43'0 0.0
2017-Sep-16 12:56N 45°46' W 084°43'0 0.0
2017-Sep-16 12:28N 45°46' W 084°43'612.1
2017-Sep-16 11:59N 45°52' W 084°43'0 0.0
2017-Sep-15 18:16N 45°52' W 084°44'0 0.0
2017-Sep-14 22:51N 45°52' W 084°44'511.6
2017-Sep-14 22:26N 45°51' W 084°37'511.6
2017-Sep-14 22:00N 45°52' W 084°44'5 9.7
2017-Sep-14 21:30N 45°51' W 084°37'5 9.4
2017-Sep-14 20:59N 45°52' W 084°44'5 7.6
2017-Sep-14 20:20N 45°51' W 084°37'514.7
2017-Sep-14 20:00N 45°52' W 084°44'5 9.5
2017-Sep-14 19:29N 45°51' W 084°37'5 9.2
2017-Sep-14 18:57N 45°52' W 084°44'5 8.4
2017-Sep-14 18:22N 45°51' W 084°37'5 2.4
2017-Sep-14 16:20N 45°52' W 084°44'411.9
2017-Sep-14 15:59N 45°49' W 084°42'2 4.3
2017-Sep-14 15:25N 45°46' W 084°43'0 0.9
2017-Sep-14 15:00N 45°46' W 084°43'612.0
2017-Sep-14 14:30N 45°51' W 084°37'612.0
2017-Sep-14 13:58N 45°46' W 084°43'610.4
2017-Sep-14 13:24N 45°51' W 084°38'4 0.3
2017-Sep-13 22:26N 45°52' W 084°44'612.7
2017-Sep-13 21:58N 45°46' W 084°43'611.1
2017-Sep-13 21:23N 45°51' W 084°37'511.6
2017-Sep-13 20:58N 45°52' W 084°44'5 7.5
2017-Sep-13 20:20N 45°51' W 084°37'5 1.8
2017-Sep-13 17:35N 45°52' W 084°44'1 8.8
2017-Sep-13 17:30N 45°52' W 084°43'510.1
2017-Sep-13 17:00N 45°47' W 084°42'510.6
2017-Sep-13 16:29N 45°51' W 084°37'612.6
2017-Sep-13 15:58N 45°46' W 084°43'0 0.0
2017-Sep-13 15:25N 45°46' W 084°43'0 0.0
2017-Sep-13 14:58N 45°46' W 084°43'613.7
2017-Sep-13 14:30N 45°51' W 084°37'611.0
2017-Sep-13 13:55N 45°46' W 084°43'614.5
2017-Sep-13 13:29N 45°51' W 084°37'5 6.1
2017-Sep-13 12:40N 45°52' W 084°44'0 0.0
2017-Sep-13 12:17N 45°52' W 084°44'0 0.0
2017-Sep-13 11:49N 45°52' W 084°44'0 0.0
2017-Sep-13 11:25N 45°52' W 084°44'0 0.0
2017-Sep-12 22:23N 45°52' W 084°44'0 0.4
2017-Sep-12 21:57N 45°52' W 084°44'5 7.3
2017-Sep-12 21:18N 45°51' W 084°37'412.7
2017-Sep-12 21:00N 45°52' W 084°42'4 6.1
2017-Sep-12 20:24N 45°51' W 084°37'0 0.0
2017-Sep-12 18:20N 45°51' W 084°37'510.5
2017-Sep-12 17:52N 45°52' W 084°44'512.3
2017-Sep-12 17:28N 45°51' W 084°37'4 7.5
2017-Sep-12 16:56N 45°52' W 084°42'3 7.5
2017-Sep-12 16:30N 45°50' W 084°39'4 7.9
2017-Sep-12 15:58N 45°52' W 084°44'510.0
2017-Sep-12 15:28N 45°51' W 084°37'3 5.8
2017-Sep-12 14:59N 45°52' W 084°41'2 4.4
2017-Sep-12 14:30N 45°50' W 084°40'4 6.1
2017-Sep-12 13:54N 45°52' W 084°44'510.0
2017-Sep-12 13:25N 45°51' W 084°37'512.0
2017-Sep-12 13:00N 45°52' W 084°44'0 0.0
2017-Sep-12 12:30N 45°52' W 084°44'  

Dump ship's entire track history